createdAt,value
2022-11-30T00:01:14.608Z,6.95
2022-11-30T00:03:47.881Z,6.35
2022-11-30T00:08:57.791Z,5.32
2022-11-30T00:11:30.406Z,5.00
2022-11-30T00:14:04.677Z,5.30
2022-11-30T00:16:37.216Z,5.28
2022-11-30T00:19:09.942Z,5.05
2022-11-30T00:21:42.460Z,4.80
2022-11-30T00:24:15.181Z,5.00
2022-11-30T00:26:47.830Z,4.53
2022-11-30T00:29:20.465Z,5.35
2022-11-30T00:31:52.951Z,5.70
2022-11-30T00:34:25.490Z,5.17
2022-11-30T00:36:58.099Z,5.97
2022-11-30T00:39:35.463Z,6.38
2022-11-30T00:42:08.591Z,6.35
2022-11-30T00:44:41.538Z,5.55
2022-11-30T00:47:14.071Z,5.85
2022-11-30T00:49:46.550Z,4.45
2022-11-30T00:52:19.110Z,5.30
2022-11-30T00:54:51.671Z,4.73
2022-11-30T00:57:24.210Z,4.63
2022-11-30T00:59:56.769Z,4.63
2022-11-30T01:02:29.424Z,4.40
2022-11-30T01:05:02.060Z,5.15
2022-11-30T01:07:34.720Z,4.65
2022-11-30T01:10:08.197Z,4.43
2022-11-30T01:15:13.208Z,4.10
2022-11-30T01:17:45.767Z,4.65
2022-11-30T01:20:18.769Z,5.35
2022-11-30T01:22:51.331Z,4.95
2022-11-30T01:25:24.176Z,5.30
2022-11-30T01:27:56.810Z,4.72
2022-11-30T01:30:29.560Z,4.90
2022-11-30T01:33:03.993Z,5.47
2022-11-30T01:35:36.474Z,4.75
2022-11-30T01:38:08.980Z,4.20
2022-11-30T01:40:49.438Z,3.90
2022-11-30T01:43:22.031Z,4.00
2022-11-30T01:45:54.688Z,3.40
2022-11-30T01:48:27.285Z,3.40
2022-11-30T01:50:59.859Z,3.60
2022-11-30T01:53:32.553Z,3.53
2022-11-30T01:56:05.271Z,3.25
2022-11-30T01:58:37.836Z,3.97
2022-11-30T02:01:10.486Z,3.63
2022-11-30T02:03:55.297Z,3.47
2022-11-30T02:06:28.183Z,2.92
2022-11-30T02:09:01.497Z,3.40
2022-11-30T02:14:24.533Z,3.70
2022-11-30T02:17:33.607Z,3.78
2022-11-30T02:20:09.283Z,4.25
2022-11-30T02:22:59.988Z,3.50
2022-11-30T02:25:49.714Z,3.83
2022-11-30T02:28:45.833Z,3.70
2022-11-30T02:31:27.134Z,4.07
2022-11-30T02:34:01.841Z,3.22
2022-11-30T02:36:34.767Z,4.05
2022-11-30T02:39:08.158Z,3.80
2022-11-30T02:44:14.353Z,3.23
2022-11-30T02:46:57.439Z,3.72
2022-11-30T02:49:49.197Z,2.75
2022-11-30T02:52:26.333Z,2.83
2022-11-30T02:55:08.201Z,3.22
2022-11-30T02:57:40.750Z,3.00
2022-11-30T03:00:15.166Z,3.53
2022-11-30T03:02:47.751Z,3.40
2022-11-30T03:05:20.378Z,2.80
2022-11-30T03:07:52.929Z,3.35
2022-11-30T03:10:25.728Z,2.92
2022-11-30T03:12:59.594Z,2.78
2022-11-30T03:15:32.327Z,2.95
2022-11-30T03:18:05.605Z,2.85
2022-11-30T03:20:42.743Z,3.05
2022-11-30T03:23:15.313Z,2.28
2022-11-30T03:25:47.916Z,2.63
2022-11-30T03:28:20.435Z,2.55
2022-11-30T03:30:53.111Z,3.05
2022-11-30T03:33:26.688Z,3.22
2022-11-30T03:36:06.313Z,3.03
2022-11-30T03:38:39.294Z,3.60
2022-11-30T03:41:14.476Z,3.38
2022-11-30T03:43:47.931Z,3.13
2022-11-30T03:46:20.578Z,3.20
2022-11-30T03:48:53.486Z,3.45
2022-11-30T03:51:26.190Z,3.20
2022-11-30T03:53:58.894Z,3.35
2022-11-30T03:56:31.416Z,3.58
2022-11-30T03:59:04.136Z,3.80
2022-11-30T04:01:37.320Z,3.05
2022-11-30T04:04:11.599Z,3.53
2022-11-30T04:06:44.289Z,3.60
2022-11-30T04:09:16.915Z,3.70
2022-11-30T04:11:49.515Z,3.53
2022-11-30T04:14:22.171Z,3.25
2022-11-30T04:16:54.873Z,3.47
2022-11-30T04:19:27.449Z,3.40
2022-11-30T04:22:00.110Z,3.90
2022-11-30T04:24:32.726Z,3.40
2022-11-30T04:27:05.417Z,3.60
2022-11-30T04:29:38.130Z,4.10
2022-11-30T04:32:10.754Z,3.63
2022-11-30T04:34:43.570Z,3.55
2022-11-30T04:37:16.293Z,3.40
2022-11-30T04:39:48.996Z,3.85
2022-11-30T04:42:21.764Z,3.10
2022-11-30T04:44:54.485Z,3.22
2022-11-30T04:47:27.131Z,3.47
2022-11-30T04:49:59.827Z,3.60
2022-11-30T04:52:32.425Z,3.15
2022-11-30T04:55:05.340Z,3.20
2022-11-30T04:57:37.902Z,3.90
2022-11-30T05:00:11.227Z,3.83
2022-11-30T05:02:49.037Z,3.25
2022-11-30T05:05:25.164Z,3.20
2022-11-30T05:07:59.747Z,3.58
2022-11-30T05:10:34.113Z,3.97
2022-11-30T05:13:06.712Z,3.80
2022-11-30T05:15:39.272Z,3.90
2022-11-30T05:18:11.865Z,4.28
2022-11-30T05:20:51.174Z,4.30
2022-11-30T05:23:23.922Z,3.42
2022-11-30T05:25:56.501Z,4.32
2022-11-30T05:28:29.111Z,3.50
2022-11-30T05:31:05.590Z,3.38
2022-11-30T05:33:38.190Z,2.95
2022-11-30T05:36:11.126Z,3.20
2022-11-30T05:38:44.288Z,2.85
2022-11-30T05:41:16.746Z,3.53
2022-11-30T05:43:49.490Z,3.57
2022-11-30T05:46:22.172Z,3.33
2022-11-30T05:48:54.766Z,3.70
2022-11-30T05:51:27.378Z,3.37
2022-11-30T05:54:00.115Z,3.20
2022-11-30T05:56:32.782Z,3.45
2022-11-30T05:59:05.321Z,2.78
2022-11-30T06:01:37.902Z,3.30
2022-11-30T06:04:10.454Z,3.22
2022-11-30T06:06:43.056Z,3.73
2022-11-30T06:09:15.734Z,2.97
2022-11-30T06:11:48.346Z,3.53
2022-11-30T06:14:20.927Z,3.17
2022-11-30T06:16:53.515Z,3.05
2022-11-30T06:19:26.127Z,3.20
2022-11-30T06:21:58.664Z,3.20
2022-11-30T06:24:31.142Z,3.07
2022-11-30T06:27:03.663Z,2.93
2022-11-30T06:29:36.161Z,3.17
2022-11-30T06:32:08.846Z,2.63
2022-11-30T06:34:41.343Z,3.00
2022-11-30T06:37:13.918Z,3.13
2022-11-30T06:42:39.210Z,3.00
2022-11-30T06:45:12.004Z,2.45
2022-11-30T06:47:44.462Z,3.03
2022-11-30T06:50:17.154Z,3.10
2022-11-30T06:52:49.748Z,3.25
2022-11-30T06:55:22.829Z,3.10
2022-11-30T06:57:55.334Z,3.00
2022-11-30T07:00:27.878Z,3.07
2022-11-30T07:03:00.558Z,3.17
2022-11-30T07:05:42.405Z,4.18
2022-11-30T07:08:16.632Z,3.63
2022-11-30T07:10:49.271Z,3.92
2022-11-30T07:13:21.844Z,4.00
2022-11-30T07:15:54.550Z,3.83
2022-11-30T07:18:31.607Z,4.25
2022-11-30T07:21:06.845Z,3.72
2022-11-30T07:23:57.586Z,4.28
2022-11-30T07:26:30.248Z,3.90
2022-11-30T07:29:02.916Z,3.67
2022-11-30T07:31:35.869Z,3.33
2022-11-30T07:34:10.405Z,3.60
2022-11-30T07:36:42.921Z,3.88
2022-11-30T07:39:16.241Z,3.50
2022-11-30T07:44:23.806Z,3.40
2022-11-30T07:46:56.383Z,3.63
2022-11-30T07:49:28.894Z,3.40
2022-11-30T07:52:04.408Z,4.03
2022-11-30T07:54:37.706Z,4.05
2022-11-30T07:59:42.826Z,3.65
2022-11-30T08:02:15.576Z,4.65
2022-11-30T08:04:48.606Z,4.43
2022-11-30T08:07:21.542Z,4.07
2022-11-30T08:09:54.078Z,4.13
2022-11-30T08:12:26.711Z,4.97
2022-11-30T08:15:19.416Z,4.43
2022-11-30T08:17:55.402Z,4.70
2022-11-30T08:20:27.959Z,4.57
2022-11-30T08:23:00.586Z,5.22
2022-11-30T08:25:35.190Z,4.20
2022-11-30T08:28:07.777Z,4.25
2022-11-30T08:30:40.431Z,4.45
2022-11-30T08:33:13.406Z,4.28
2022-11-30T08:35:45.969Z,4.75
2022-11-30T08:38:18.653Z,4.18
2022-11-30T08:40:51.202Z,4.60
2022-11-30T08:43:23.822Z,4.50
2022-11-30T08:45:57.481Z,4.95
2022-11-30T08:48:30.465Z,5.82
2022-11-30T08:51:06.283Z,4.95
2022-11-30T08:53:39.423Z,4.45
2022-11-30T08:56:14.790Z,4.70
2022-11-30T08:58:48.225Z,4.93
2022-11-30T09:01:27.046Z,4.20
2022-11-30T09:04:02.396Z,3.95
2022-11-30T09:06:34.948Z,3.55
2022-11-30T09:09:09.935Z,4.10
2022-11-30T09:11:43.155Z,3.60
2022-11-30T09:14:15.723Z,3.72
2022-11-30T09:16:48.477Z,3.60
2022-11-30T09:19:21.595Z,2.53
2022-11-30T09:24:26.760Z,2.63
2022-11-30T09:26:59.314Z,3.08
2022-11-30T09:29:31.869Z,3.08
2022-11-30T09:32:04.556Z,2.70
2022-11-30T09:34:37.135Z,2.80
2022-11-30T09:37:09.684Z,2.75
2022-11-30T09:39:42.300Z,2.65
2022-11-30T09:42:32.372Z,2.95
2022-11-30T09:45:14.271Z,2.90
2022-11-30T09:48:15.508Z,3.00
2022-11-30T09:50:49.803Z,3.17
2022-11-30T09:53:29.646Z,3.22
2022-11-30T09:56:03.491Z,3.47
2022-11-30T09:59:02.772Z,2.95
2022-11-30T10:01:37.579Z,4.10
2022-11-30T10:04:23.072Z,3.40
2022-11-30T10:07:21.842Z,3.53
2022-11-30T10:10:31.926Z,3.83
2022-11-30T10:13:18.722Z,3.50
2022-11-30T10:15:54.672Z,3.10
2022-11-30T10:19:00.939Z,2.95
2022-11-30T10:21:53.715Z,3.38
2022-11-30T10:24:55.345Z,3.33
2022-11-30T10:27:49.701Z,3.08
2022-11-30T10:30:24.854Z,3.22
2022-11-30T10:33:05.684Z,3.00
2022-11-30T10:35:49.785Z,2.60
2022-11-30T10:38:36.808Z,2.38
2022-11-30T10:41:21.336Z,2.50
2022-11-30T10:43:59.338Z,2.90
2022-11-30T10:46:37.009Z,2.83
2022-11-30T10:49:17.255Z,2.70
2022-11-30T10:51:57.732Z,2.35
2022-11-30T10:54:31.259Z,2.25
2022-11-30T10:57:06.861Z,2.38
2022-11-30T10:59:56.871Z,2.38
2022-11-30T11:02:39.421Z,2.00
2022-11-30T11:05:27.484Z,2.10
2022-11-30T11:08:07.244Z,2.05
2022-11-30T11:10:40.059Z,2.40
2022-11-30T11:13:42.961Z,2.60
2022-11-30T11:16:15.672Z,2.38
2022-11-30T11:18:56.668Z,2.38
2022-11-30T11:21:29.217Z,2.55
2022-11-30T11:24:10.185Z,2.53
2022-11-30T11:26:50.736Z,2.60
2022-11-30T11:29:35.257Z,2.78
2022-11-30T11:32:07.808Z,2.53
2022-11-30T11:34:40.491Z,3.05
2022-11-30T11:37:17.705Z,2.67
2022-11-30T11:40:08.288Z,2.03
2022-11-30T11:42:54.154Z,2.25
2022-11-30T11:45:30.964Z,2.42
2022-11-30T11:48:06.085Z,2.60
2022-11-30T11:53:51.624Z,3.10
2022-11-30T11:56:38.188Z,2.80
2022-11-30T11:59:11.190Z,2.63
2022-11-30T12:01:59.681Z,2.95
2022-11-30T12:04:48.018Z,2.95
2022-11-30T12:07:35.256Z,2.67
2022-11-30T12:10:57.376Z,2.85
2022-11-30T12:13:29.896Z,2.80
2022-11-30T12:16:10.709Z,3.42
2022-11-30T12:19:00.696Z,3.70
2022-11-30T12:21:46.783Z,3.38
2022-11-30T12:24:24.821Z,3.28
2022-11-30T12:27:12.408Z,3.97
2022-11-30T12:29:54.108Z,3.30
2022-11-30T12:32:59.212Z,3.28
2022-11-30T12:36:07.312Z,3.63
2022-11-30T12:38:49.566Z,3.75
2022-11-30T12:41:37.500Z,4.07
2022-11-30T12:44:53.957Z,3.10
2022-11-30T12:48:00.789Z,3.67
2022-11-30T12:50:54.633Z,4.30
2022-11-30T12:53:38.823Z,3.70
2022-11-30T12:56:23.440Z,3.13
2022-11-30T12:59:08.267Z,3.70
2022-11-30T13:01:58.618Z,4.35
2022-11-30T13:04:37.584Z,3.97
2022-11-30T13:07:35.237Z,4.15
2022-11-30T13:10:27.237Z,4.13
2022-11-30T13:13:02.221Z,4.70
2022-11-30T13:15:35.881Z,4.35
2022-11-30T13:18:15.707Z,4.38
2022-11-30T13:21:06.863Z,4.80
2022-11-30T13:23:48.900Z,3.90
2022-11-30T13:26:46.285Z,5.25
2022-11-30T13:29:25.044Z,5.32
2022-11-30T13:32:33.864Z,5.60
2022-11-30T13:35:29.326Z,5.28
2022-11-30T13:41:01.766Z,4.57
2022-11-30T13:43:45.729Z,4.57
2022-11-30T13:46:24.104Z,4.40
2022-11-30T13:49:22.743Z,4.25
2022-11-30T13:52:20.553Z,4.07
2022-11-30T13:54:51.017Z,4.63
2022-11-30T13:57:29.914Z,4.15
2022-11-30T14:00:23.834Z,4.47
2022-11-30T14:05:47.908Z,4.93
2022-11-30T14:08:23.434Z,4.43
2022-11-30T14:11:48.247Z,4.65
2022-11-30T14:14:45.617Z,4.43
2022-11-30T14:17:25.270Z,3.47
2022-11-30T14:20:19.138Z,3.92
2022-11-30T14:22:52.607Z,3.85
2022-11-30T14:25:25.363Z,4.25
2022-11-30T14:27:58.255Z,4.50
2022-11-30T14:30:33.108Z,3.78
2022-11-30T14:33:19.199Z,4.30
2022-11-30T14:35:56.883Z,3.92
2022-11-30T14:38:33.885Z,4.05
2022-11-30T14:41:06.594Z,3.60
2022-11-30T14:43:39.350Z,3.63
2022-11-30T14:46:18.873Z,4.47
2022-11-30T14:49:24.177Z,4.28
2022-11-30T14:52:05.443Z,4.28
2022-11-30T14:55:04.230Z,3.58
2022-11-30T14:57:49.519Z,4.75
2022-11-30T15:00:22.729Z,4.38
2022-11-30T15:05:30.931Z,4.25
2022-11-30T15:08:03.633Z,3.85
2022-11-30T15:10:39.492Z,3.75
2022-11-30T15:13:19.154Z,4.72
2022-11-30T15:15:53.932Z,4.20
2022-11-30T15:18:27.254Z,4.35
2022-11-30T15:23:34.653Z,4.40
2022-11-30T15:26:15.991Z,4.50
2022-11-30T15:29:02.401Z,4.45
2022-11-30T15:31:38.821Z,4.45
2022-11-30T15:34:22.408Z,4.60
2022-11-30T15:39:29.892Z,3.92
2022-11-30T15:42:05.414Z,4.10
2022-11-30T15:44:39.789Z,3.78
2022-11-30T15:47:36.161Z,4.50
2022-11-30T15:50:28.499Z,3.55
2022-11-30T15:53:03.652Z,4.00
2022-11-30T15:55:52.961Z,4.85
2022-11-30T15:58:45.042Z,4.50
2022-11-30T16:01:20.914Z,4.10
2022-11-30T16:03:56.294Z,4.25
2022-11-30T16:06:45.403Z,4.72
2022-11-30T16:09:22.931Z,6.00
2022-11-30T16:11:58.096Z,4.00
2022-11-30T16:14:30.701Z,4.15
2022-11-30T16:17:08.805Z,4.40
2022-11-30T16:19:41.779Z,2.72
2022-11-30T16:22:15.973Z,3.45
2022-11-30T16:24:48.563Z,3.17
2022-11-30T16:27:22.767Z,2.70
2022-11-30T16:29:55.496Z,2.42
2022-11-30T16:32:28.365Z,2.70
2022-11-30T16:35:02.068Z,2.80
2022-11-30T16:37:34.642Z,4.05
2022-11-30T16:40:07.819Z,3.30
2022-11-30T16:42:40.899Z,3.78
2022-11-30T16:45:17.392Z,3.55
2022-11-30T16:47:51.099Z,4.10
2022-11-30T16:50:23.720Z,4.22
2022-11-30T16:52:56.242Z,4.30
2022-11-30T16:55:35.094Z,5.10
2022-11-30T16:58:07.941Z,4.28
2022-11-30T17:00:41.429Z,4.40
2022-11-30T17:03:30.297Z,4.82
2022-11-30T17:06:02.925Z,6.85
2022-11-30T17:08:36.175Z,7.10
2022-11-30T17:11:26.476Z,9.50
2022-11-30T17:13:59.307Z,14.05
2022-11-30T17:16:32.178Z,12.13
2022-11-30T17:19:04.997Z,8.55
2022-11-30T17:21:39.191Z,8.57
2022-11-30T17:24:12.264Z,9.30
2022-11-30T17:26:44.872Z,7.60
2022-11-30T17:29:17.797Z,8.57
2022-11-30T17:31:50.377Z,6.50
2022-11-30T17:34:23.070Z,6.95
2022-11-30T17:36:57.053Z,7.47
2022-11-30T17:39:29.702Z,6.25
2022-11-30T17:42:02.472Z,5.90
2022-11-30T17:44:35.262Z,5.70
2022-11-30T17:47:07.932Z,5.28
2022-11-30T17:49:40.737Z,5.60
2022-11-30T17:52:13.290Z,5.95
2022-11-30T17:54:46.131Z,6.05
2022-11-30T17:57:18.977Z,5.32
2022-11-30T17:59:51.667Z,5.03
2022-11-30T18:02:24.556Z,5.65
2022-11-30T18:04:57.243Z,5.32
2022-11-30T18:07:29.899Z,6.50
2022-11-30T18:10:02.769Z,5.57
2022-11-30T18:12:36.486Z,6.22
2022-11-30T18:15:09.846Z,9.43
2022-11-30T18:20:14.996Z,9.80
2022-11-30T18:22:47.512Z,8.45
2022-11-30T18:25:21.582Z,8.30
2022-11-30T18:27:54.213Z,13.20
2022-11-30T18:30:26.846Z,10.75
2022-11-30T18:32:59.493Z,8.30
2022-11-30T18:35:33.809Z,8.63
2022-11-30T18:38:06.427Z,9.43
2022-11-30T18:40:39.067Z,8.18
2022-11-30T18:43:11.758Z,9.05
2022-11-30T18:45:44.546Z,9.30
2022-11-30T18:48:17.265Z,9.27
2022-11-30T18:50:49.800Z,8.40
2022-11-30T18:53:22.422Z,9.23
2022-11-30T18:55:55.203Z,10.02
2022-11-30T18:58:27.777Z,9.90
2022-11-30T19:01:10.684Z,12.63
2022-11-30T19:03:43.648Z,12.63
2022-11-30T19:06:16.291Z,12.20
2022-11-30T19:08:49.070Z,12.45
2022-11-30T19:11:21.847Z,11.18
2022-11-30T19:14:01.661Z,12.13
2022-11-30T19:16:36.439Z,13.10
2022-11-30T19:19:14.704Z,11.40
2022-11-30T19:21:52.912Z,11.55
2022-11-30T19:24:25.957Z,10.18
2022-11-30T19:26:58.660Z,11.48
2022-11-30T19:29:31.703Z,12.80
2022-11-30T19:32:04.544Z,12.82
2022-11-30T19:34:37.145Z,13.30
2022-11-30T19:37:09.712Z,11.65
2022-11-30T19:39:42.370Z,11.27
2022-11-30T19:42:15.182Z,10.00
2022-11-30T19:44:48.019Z,11.82
2022-11-30T19:47:20.849Z,13.90
2022-11-30T19:49:53.506Z,22.70
2022-11-30T19:52:26.102Z,19.50
2022-11-30T19:54:58.683Z,18.55
2022-11-30T19:57:31.339Z,16.02
2022-11-30T20:00:06.652Z,14.30
2022-11-30T20:02:45.106Z,11.88
2022-11-30T20:05:18.608Z,11.80
2022-11-30T20:07:51.306Z,10.07
2022-11-30T20:10:27.707Z,10.98
2022-11-30T20:13:03.048Z,10.40
2022-11-30T20:15:39.446Z,10.17
2022-11-30T20:18:12.173Z,8.18
2022-11-30T20:20:47.538Z,10.02
2022-11-30T20:23:20.115Z,9.50
2022-11-30T20:25:52.708Z,9.43
2022-11-30T20:28:25.257Z,9.38
2022-11-30T20:31:02.099Z,8.73
2022-11-30T20:33:35.815Z,7.50
2022-11-30T20:36:09.966Z,9.02
2022-11-30T20:38:43.436Z,10.15
2022-11-30T20:41:18.405Z,9.07
2022-11-30T20:43:50.981Z,9.23
2022-11-30T20:46:32.708Z,9.60
2022-11-30T20:49:13.522Z,10.48
2022-11-30T20:51:47.164Z,10.55
2022-11-30T20:54:21.025Z,10.70
2022-11-30T20:56:53.686Z,9.20
2022-11-30T20:59:26.954Z,9.40
2022-11-30T21:01:59.719Z,9.77
2022-11-30T21:04:32.436Z,8.25
2022-11-30T21:07:05.152Z,8.73
2022-11-30T21:09:40.060Z,8.45
2022-11-30T21:12:12.840Z,8.05
2022-11-30T21:14:45.651Z,7.78
2022-11-30T21:17:18.825Z,8.00
2022-11-30T21:19:51.533Z,8.10
2022-11-30T21:22:26.640Z,6.15
2022-11-30T21:24:59.544Z,6.90
2022-11-30T21:27:32.311Z,7.13
2022-11-30T21:30:05.761Z,7.43
2022-11-30T21:32:38.327Z,6.43
2022-11-30T21:35:11.331Z,7.22
2022-11-30T21:37:43.950Z,6.38
2022-11-30T21:40:16.726Z,6.07
2022-11-30T21:42:49.389Z,5.80
2022-11-30T21:45:22.054Z,6.05
2022-11-30T21:47:54.708Z,6.00
2022-11-30T21:50:27.719Z,7.03
2022-11-30T21:53:00.307Z,6.57
2022-11-30T21:55:34.124Z,6.43
2022-11-30T21:58:06.750Z,6.47
2022-11-30T22:00:39.297Z,6.47
2022-11-30T22:03:15.700Z,6.22
2022-11-30T22:06:05.726Z,5.95
2022-11-30T22:08:38.674Z,6.03
2022-11-30T22:11:16.522Z,6.30
2022-11-30T22:13:53.989Z,6.25
2022-11-30T22:16:34.042Z,6.43
2022-11-30T22:19:08.883Z,6.53
2022-11-30T22:21:45.313Z,6.75
2022-11-30T22:24:20.961Z,5.82
2022-11-30T22:26:53.500Z,5.80
2022-11-30T22:29:26.221Z,5.88
2022-11-30T22:31:58.847Z,5.97
2022-11-30T22:34:32.106Z,6.13
2022-11-30T22:39:37.163Z,5.38
2022-11-30T22:42:09.718Z,5.90
2022-11-30T22:44:42.240Z,5.80
2022-11-30T22:47:15.282Z,6.05
2022-11-30T22:49:48.064Z,5.53
2022-11-30T22:52:36.373Z,5.50
2022-11-30T22:55:14.098Z,4.90
2022-11-30T22:57:46.784Z,4.85
2022-11-30T23:00:19.711Z,5.05
2022-11-30T23:02:52.390Z,5.30
2022-11-30T23:05:25.044Z,5.00
2022-11-30T23:07:57.730Z,5.30
2022-11-30T23:10:30.397Z,4.95
2022-11-30T23:13:03.101Z,5.18
2022-11-30T23:15:35.718Z,5.20
2022-11-30T23:18:08.336Z,4.50
2022-11-30T23:20:40.862Z,5.05
2022-11-30T23:23:13.478Z,5.05
2022-11-30T23:25:45.961Z,4.68
2022-11-30T23:28:18.591Z,5.20
2022-11-30T23:30:51.178Z,5.65
2022-11-30T23:33:23.734Z,4.82
2022-11-30T23:35:56.346Z,4.60
2022-11-30T23:38:29.005Z,4.50
2022-11-30T23:41:10.079Z,3.88
2022-11-30T23:43:43.223Z,4.28
2022-11-30T23:46:15.834Z,4.57
2022-11-30T23:48:48.422Z,3.90
2022-11-30T23:51:20.950Z,3.95
2022-11-30T23:53:53.551Z,4.15
2022-11-30T23:56:26.188Z,4.63
2022-11-30T23:58:58.821Z,4.68
